Death Valley National Park, CA

4:35 AM PDT on August 05, 2015 (GMT -0700)
China Lake NAWS | | Change Station
CLOSE
Current Station
Airport
Location: China Lake,
Elevation: 2283 ft
Nearby Weather Stations

Elev 2283 ft 35.69 °N, 117.69 °W | Updated 39 minutes ago

Clear
Clear
78 °F
Feels Like 78 °F
N
9
Wind Variable Wind from SSW

Today
High -- | Low -- °F
--% Chance of Precip.
Yesterday
High -- | Low -- °F
Precip. -- in
5:58 AM 7:50 PM
Waning Gibbous, 68% visible
Pressure 29.84 in
Visibility 10.0 miles
Clouds Clear
Dew Point 39 °F
Humidity 25%
Rainfall 0.00 in
Snow Depth Not available.
UV 0 out of 12
Pollen 5.40 out of 12
Air Quality Not available.
Flu Activity Not available.
METAR KNID 051056Z AUTO 21008KT 10SM CLR 26/04 A2992 RMK AO2 SLP105 T02560039 $

More Conditions Fewer Conditions

Pressure 29.84 in
Visibility 10.0 miles
Clouds Clear
Dew Point 39 °F
Humidity 25%
Rainfall 0.00 in
Snow Depth Not available.
UV 0 out of 12
Pollen 5.40 out of 12
Air Quality Not available.
Flu Activity Not available.
METAR KNID 051056Z AUTO 21008KT 10SM CLR 26/04 A2992 RMK AO2 SLP105 T02560039 $

More Conditions Fewer Conditions

10-Day Weather Forecast

×

Almanac

Astronomy

Aug. 05, 2015 Rise Set
Actual Time
Civil Twilight
Nautical Twilight
Astronomical Twilight
Moon
Length of Visible Light
Length of Day
Tomorrow will be .
, % of the Moon is Illuminated

Today's Extremes

State Highs State Lows

Community

WunderPhotos

Upload Photos

1,844,138 photos uploaded!

WunderBlogs® & News

Nearby

Air Quality

  Air Quality AQ Index Pollutant
Not available.

Snow Depth

Station Depth Elevation

Earthquake Activity

City Distance Mag. Time & Date
Minimum magnitude displayed is 2.5.

Coastal Water Temperatures

Place Temperature

Stations

Nearby Weather Stations

Station Location Temp. Windchill Dew Point Humidity Wind Precip. Elev Updated Type